sensor_id;sensor_type;location;lat;lon;timestamp;pressure;altitude;pressure_sealevel;temperature;humidity
13348;BME280;6743;49.934;9.138;2024-03-29T00:00:09;98681.41;;;7.60;100.00
13348;BME280;6743;49.934;9.138;2024-03-29T00:02:36;98684.88;;;7.60;100.00
13348;BME280;6743;49.934;9.138;2024-03-29T00:05:02;98679.78;;;7.59;100.00
13348;BME280;6743;49.934;9.138;2024-03-29T00:07:28;98635.66;;;7.38;100.00
13348;BME280;6743;49.934;9.138;2024-03-29T00:09:54;98669.47;;;7.64;100.00
13348;BME280;6743;49.934;9.138;2024-03-29T00:12:20;98658.09;;;7.63;100.00
13348;BME280;6743;49.934;9.138;2024-03-29T00:14:46;98662.63;;;7.69;100.00
13348;BME280;6743;49.934;9.138;2024-03-29T00:17:13;98666.72;;;7.72;100.00
13348;BME280;6743;49.934;9.138;2024-03-29T00:19:40;98655.78;;;7.75;100.00
13348;BME280;6743;49.934;9.138;2024-03-29T00:22:06;98636.97;;;7.78;100.00
13348;BME280;6743;49.934;9.138;2024-03-29T00:24:32;98633.75;;;7.82;100.00
13348;BME280;6743;49.934;9.138;2024-03-29T00:26:58;98614.72;;;7.87;100.00
13348;BME280;6743;49.934;9.138;2024-03-29T00:29:24;98610.06;;;7.89;100.00
13348;BME280;6743;49.934;9.138;2024-03-29T00:31:52;98610.69;;;7.91;100.00
13348;BME280;6743;49.934;9.138;2024-03-29T00:34:17;98615.63;;;7.94;100.00
13348;BME280;6743;49.934;9.138;2024-03-29T00:36:44;98625.97;;;7.96;100.00
13348;BME280;6743;49.934;9.138;2024-03-29T00:39:10;98622.78;;;8.00;100.00
13348;BME280;6743;49.934;9.138;2024-03-29T00:41:36;98618.94;;;8.03;100.00
13348;BME280;6743;49.934;9.138;2024-03-29T00:44:02;98634.59;;;8.04;100.00
13348;BME280;6743;49.934;9.138;2024-03-29T00:46:28;98631.75;;;8.06;100.00
13348;BME280;6743;49.934;9.138;2024-03-29T00:48:54;98623.03;;;8.05;100.00
13348;BME280;6743;49.934;9.138;2024-03-29T00:51:20;98622.19;;;8.05;100.00
13348;BME280;6743;49.934;9.138;2024-03-29T00:53:46;98615.28;;;8.04;100.00
13348;BME280;6743;49.934;9.138;2024-03-29T00:56:12;98592.78;;;7.86;100.00
13348;BME280;6743;49.934;9.138;2024-03-29T00:58:38;98611.41;;;8.00;100.00
13348;BME280;6743;49.934;9.138;2024-03-29T01:01:04;98607.31;;;7.97;100.00
13348;BME280;6743;49.934;9.138;2024-03-29T01:03:30;98614.63;;;7.95;100.00
13348;BME280;6743;49.934;9.138;2024-03-29T01:05:56;98619.91;;;7.95;100.00
13348;BME280;6743;49.934;9.138;2024-03-29T01:08:22;98623.16;;;7.97;100.00
13348;BME280;6743;49.934;9.138;2024-03-29T01:10:49;98613.22;;;7.99;100.00
13348;BME280;6743;49.934;9.138;2024-03-29T01:13:15;98603.28;;;8.01;100.00
13348;BME280;6743;49.934;9.138;2024-03-29T01:15:41;98598.63;;;8.03;100.00
13348;BME280;6743;49.934;9.138;2024-03-29T01:18:06;98587.69;;;8.06;100.00
13348;BME280;6743;49.934;9.138;2024-03-29T01:20:32;98589.16;;;8.09;100.00
13348;BME280;6743;49.934;9.138;2024-03-29T01:22:58;98585.47;;;8.10;100.00
13348;BME280;6743;49.934;9.138;2024-03-29T01:25:24;98591.41;;;8.12;100.00
13348;BME280;6743;49.934;9.138;2024-03-29T01:27:50;98592.22;;;8.12;100.00
13348;BME280;6743;49.934;9.138;2024-03-29T01:30:16;98583.28;;;8.13;100.00
13348;BME280;6743;49.934;9.138;2024-03-29T01:32:42;98584.94;;;8.14;100.00
13348;BME280;6743;49.934;9.138;2024-03-29T01:35:08;98589.22;;;8.15;100.00
13348;BME280;6743;49.934;9.138;2024-03-29T01:37:34;98583.94;;;8.15;100.00
13348;BME280;6743;49.934;9.138;2024-03-29T01:40:00;98577.19;;;8.13;100.00
13348;BME280;6743;49.934;9.138;2024-03-29T01:42:25;98574.19;;;8.16;100.00
13348;BME280;6743;49.934;9.138;2024-03-29T01:44:52;98542.34;;;8.03;100.00
13348;BME280;6743;49.934;9.138;2024-03-29T01:47:18;98556.47;;;8.16;100.00
13348;BME280;6743;49.934;9.138;2024-03-29T01:49:44;98547.56;;;8.17;100.00
13348;BME280;6743;49.934;9.138;2024-03-29T01:52:11;98534.16;;;8.19;100.00
13348;BME280;6743;49.934;9.138;2024-03-29T01:54:37;98525.06;;;8.21;100.00
13348;BME280;6743;49.934;9.138;2024-03-29T01:57:04;98501.59;;;8.12;100.00
13348;BME280;6743;49.934;9.138;2024-03-29T01:59:32;98524.41;;;8.19;100.00
13348;BME280;6743;49.934;9.138;2024-03-29T02:01:59;98528.28;;;8.23;100.00
13348;BME280;6743;49.934;9.138;2024-03-29T02:04:26;98543.13;;;8.24;100.00
13348;BME280;6743;49.934;9.138;2024-03-29T02:06:52;98549.88;;;8.27;100.00
13348;BME280;6743;49.934;9.138;2024-03-29T02:09:18;98543.59;;;8.28;100.00
13348;BME280;6743;49.934;9.138;2024-03-29T02:11:44;98532.38;;;8.26;100.00
13348;BME280;6743;49.934;9.138;2024-03-29T02:14:10;98519.38;;;8.24;100.00
13348;BME280;6743;49.934;9.138;2024-03-29T02:16:36;98513.25;;;8.24;100.00
13348;BME280;6743;49.934;9.138;2024-03-29T02:19:04;98509.00;;;8.23;100.00
13348;BME280;6743;49.934;9.138;2024-03-29T02:21:31;98507.37;;;8.22;100.00
13348;BME280;6743;49.934;9.138;2024-03-29T02:24:03;98508.19;;;8.22;100.00
13348;BME280;6743;49.934;9.138;2024-03-29T02:26:29;98513.47;;;8.22;100.00
13348;BME280;6743;49.934;9.138;2024-03-29T02:28:58;98510.84;;;8.22;100.00
13348;BME280;6743;49.934;9.138;2024-03-29T02:31:24;98522.19;;;8.23;100.00
13348;BME280;6743;49.934;9.138;2024-03-29T02:33:50;98537.25;;;8.22;100.00
13348;BME280;6743;49.934;9.138;2024-03-29T02:36:16;98550.47;;;8.22;100.00
13348;BME280;6743;49.934;9.138;2024-03-29T02:38:42;98554.72;;;8.23;100.00
13348;BME280;6743;49.934;9.138;2024-03-29T02:41:08;98554.53;;;8.25;100.00
13348;BME280;6743;49.934;9.138;2024-03-29T02:43:34;98560.63;;;8.25;100.00
13348;BME280;6743;49.934;9.138;2024-03-29T02:46:00;98571.19;;;8.25;100.00
13348;BME280;6743;49.934;9.138;2024-03-29T02:48:27;98578.13;;;8.26;100.00
13348;BME280;6743;49.934;9.138;2024-03-29T02:50:52;98565.03;;;8.18;100.00
13348;BME280;6743;49.934;9.138;2024-03-29T02:53:18;98575.47;;;8.26;100.00
13348;BME280;6743;49.934;9.138;2024-03-29T02:55:44;98564.91;;;8.26;100.00
13348;BME280;6743;49.934;9.138;2024-03-29T02:58:11;98566.72;;;8.26;100.00
13348;BME280;6743;49.934;9.138;2024-03-29T03:00:36;98559.38;;;8.21;100.00
13348;BME280;6743;49.934;9.138;2024-03-29T03:03:02;98551.88;;;8.25;100.00
13348;BME280;6743;49.934;9.138;2024-03-29T03:05:29;98543.97;;;8.25;100.00
13348;BME280;6743;49.934;9.138;2024-03-29T03:08:01;98534.41;;;8.24;100.00
13348;BME280;6743;49.934;9.138;2024-03-29T03:10:53;98516.00;;;8.09;100.00
13348;BME280;6743;49.934;9.138;2024-03-29T03:13:26;98571.19;;;8.25;100.00
13348;BME280;6743;49.934;9.138;2024-03-29T03:15:52;98553.47;;;8.19;100.00
13348;BME280;6743;49.934;9.138;2024-03-29T03:18:17;98549.88;;;8.27;100.00
13348;BME280;6743;49.934;9.138;2024-03-29T03:20:50;98555.34;;;8.25;100.00
13348;BME280;6743;49.934;9.138;2024-03-29T03:23:16;98565.72;;;8.27;100.00
13348;BME280;6743;49.934;9.138;2024-03-29T03:25:42;98572.19;;;8.24;100.00
13348;BME280;6743;49.934;9.138;2024-03-29T03:28:07;98551.06;;;8.24;100.00
13348;BME280;6743;49.934;9.138;2024-03-29T03:30:39;98552.69;;;8.25;100.00
13348;BME280;6743;49.934;9.138;2024-03-29T03:33:04;98579.12;;;8.25;100.00
13348;BME280;6743;49.934;9.138;2024-03-29T03:35:31;98578.94;;;8.27;100.00
13348;BME280;6743;49.934;9.138;2024-03-29T03:37:57;98555.88;;;8.14;100.00
13348;BME280;6743;49.934;9.138;2024-03-29T03:40:23;98553.53;;;8.26;100.00
13348;BME280;6743;49.934;9.138;2024-03-29T03:42:48;98561.44;;;8.26;100.00
13348;BME280;6743;49.934;9.138;2024-03-29T03:45:14;98559.81;;;8.25;100.00
13348;BME280;6743;49.934;9.138;2024-03-29T03:47:41;98566.09;;;8.24;100.00
13348;BME280;6743;49.934;9.138;2024-03-29T03:50:08;98569.56;;;8.24;100.00
13348;BME280;6743;49.934;9.138;2024-03-29T03:52:33;98591.50;;;8.25;100.00
13348;BME280;6743;49.934;9.138;2024-03-29T03:54:59;98578.31;;;8.25;100.00
13348;BME280;6743;49.934;9.138;2024-03-29T03:57:25;98555.47;;;8.17;100.00
13348;BME280;6743;49.934;9.138;2024-03-29T03:59:51;98585.03;;;8.27;100.00
13348;BME280;6743;49.934;9.138;2024-03-29T04:02:17;98578.94;;;8.27;100.00
13348;BME280;6743;49.934;9.138;2024-03-29T04:04:46;98578.75;;;8.28;100.00
13348;BME280;6743;49.934;9.138;2024-03-29T04:07:12;98578.53;;;8.30;100.00
13348;BME280;6743;49.934;9.138;2024-03-29T04:09:38;98585.50;;;8.31;100.00
13348;BME280;6743;49.934;9.138;2024-03-29T04:12:04;98587.94;;;8.33;100.00
13348;BME280;6743;49.934;9.138;2024-03-29T04:14:30;98582.47;;;8.34;100.00
13348;BME280;6743;49.934;9.138;2024-03-29T04:16:56;98572.53;;;8.36;100.00
13348;BME280;6743;49.934;9.138;2024-03-29T04:19:22;98565.63;;;8.35;100.00
13348;BME280;6743;49.934;9.138;2024-03-29T04:21:49;98532.72;;;8.16;100.00
13348;BME280;6743;49.934;9.138;2024-03-29T04:24:14;98554.06;;;8.36;100.00
13348;BME280;6743;49.934;9.138;2024-03-29T04:26:40;98579.03;;;8.34;100.00
13348;BME280;6743;49.934;9.138;2024-03-29T04:29:06;98582.28;;;8.36;100.00
13348;BME280;6743;49.934;9.138;2024-03-29T04:31:32;98565.81;;;8.34;100.00
13348;BME280;6743;49.934;9.138;2024-03-29T04:33:58;98543.03;;;8.33;100.00
13348;BME280;6743;49.934;9.138;2024-03-29T04:36:24;98559.06;;;8.31;100.00
13348;BME280;6743;49.934;9.138;2024-03-29T04:38:50;98555.63;;;8.30;100.00
13348;BME280;6743;49.934;9.138;2024-03-29T04:41:16;98555.78;;;8.29;100.00
13348;BME280;6743;49.934;9.138;2024-03-29T04:43:43;98558.81;;;8.26;100.00
13348;BME280;6743;49.934;9.138;2024-03-29T04:46:10;98556.16;;;8.26;100.00
13348;BME280;6743;49.934;9.138;2024-03-29T04:48:37;98538.56;;;8.12;100.00
13348;BME280;6743;49.934;9.138;2024-03-29T04:51:03;98550.19;;;8.17;100.00
13348;BME280;6743;49.934;9.138;2024-03-29T04:53:29;98559.81;;;8.25;100.00
13348;BME280;6743;49.934;9.138;2024-03-29T04:55:57;98565.09;;;8.25;100.00
13348;BME280;6743;49.934;9.138;2024-03-29T04:58:23;98568.56;;;8.25;100.00
13348;BME280;6743;49.934;9.138;2024-03-29T05:00:50;98568.56;;;8.25;100.00
13348;BME280;6743;49.934;9.138;2024-03-29T05:03:17;98564.28;;;8.24;100.00
13348;BME280;6743;49.934;9.138;2024-03-29T05:05:43;98560.81;;;8.24;100.00
13348;BME280;6743;49.934;9.138;2024-03-29T05:08:09;98562.63;;;8.23;100.00
13348;BME280;6743;49.934;9.138;2024-03-29T05:10:35;98556.34;;;8.24;100.00
13348;BME280;6743;49.934;9.138;2024-03-29T05:13:01;98562.44;;;8.25;100.00
13348;BME280;6743;49.934;9.138;2024-03-29T05:15:27;98573.00;;;8.25;100.00
13348;BME280;6743;49.934;9.138;2024-03-29T05:17:53;98567.72;;;8.25;100.00
13348;BME280;6743;49.934;9.138;2024-03-29T05:20:19;98576.28;;;8.27;100.00
13348;BME280;6743;49.934;9.138;2024-03-29T05:22:45;98567.09;;;8.23;100.00
13348;BME280;6743;49.934;9.138;2024-03-29T05:25:11;98559.81;;;8.25;100.00
13348;BME280;6743;49.934;9.138;2024-03-29T05:27:37;98575.47;;;8.26;100.00
13348;BME280;6743;49.934;9.138;2024-03-29T05:30:05;98565.44;;;8.15;100.00
13348;BME280;6743;49.934;9.138;2024-03-29T05:32:31;98575.66;;;8.25;100.00
13348;BME280;6743;49.934;9.138;2024-03-29T05:34:57;98590.50;;;8.26;100.00
13348;BME280;6743;49.934;9.138;2024-03-29T05:37:23;98585.22;;;8.26;100.00
13348;BME280;6743;49.934;9.138;2024-03-29T05:39:50;98590.50;;;8.26;100.00
13348;BME280;6743;49.934;9.138;2024-03-29T05:42:24;98595.78;;;8.26;100.00
13348;BME280;6743;49.934;9.138;2024-03-29T05:44:50;98603.72;;;8.26;100.00
13348;BME280;6743;49.934;9.138;2024-03-29T05:47:17;98594.97;;;8.25;100.00
13348;BME280;6743;49.934;9.138;2024-03-29T05:49:43;98590.50;;;8.26;100.00
13348;BME280;6743;49.934;9.138;2024-03-29T05:52:09;98589.69;;;8.25;100.00
13348;BME280;6743;49.934;9.138;2024-03-29T05:54:35;98585.03;;;8.27;100.00
13348;BME280;6743;49.934;9.138;2024-03-29T05:57:01;98594.59;;;8.28;100.00
13348;BME280;6743;49.934;9.138;2024-03-29T05:59:28;98584.22;;;8.27;100.00
13348;BME280;6743;49.934;9.138;2024-03-29T06:01:55;98586.84;;;8.27;100.00
13348;BME280;6743;49.934;9.138;2024-03-29T06:04:21;98586.84;;;8.27;100.00
13348;BME280;6743;49.934;9.138;2024-03-29T06:06:54;98585.03;;;8.27;100.00
13348;BME280;6743;49.934;9.138;2024-03-29T06:09:20;98584.84;;;8.29;100.00
13348;BME280;6743;49.934;9.138;2024-03-29T06:11:46;98587.31;;;8.30;100.00
13348;BME280;6743;49.934;9.138;2024-03-29T06:14:12;98588.94;;;8.32;100.00
13348;BME280;6743;49.934;9.138;2024-03-29T06:16:56;98592.22;;;8.34;100.00
13348;BME280;6743;49.934;9.138;2024-03-29T06:19:41;98589.41;;;8.35;100.00
13348;BME280;6743;49.934;9.138;2024-03-29T06:22:07;98581.47;;;8.35;100.00
13348;BME280;6743;49.934;9.138;2024-03-29T06:24:34;98585.94;;;8.35;100.00
13348;BME280;6743;49.934;9.138;2024-03-29T06:27:00;98591.22;;;8.35;100.00
13348;BME280;6743;49.934;9.138;2024-03-29T06:29:26;98585.13;;;8.34;100.00
13348;BME280;6743;49.934;9.138;2024-03-29T06:31:52;98591.41;;;8.33;100.00
13348;BME280;6743;49.934;9.138;2024-03-29T06:34:18;98596.69;;;8.33;100.00
13348;BME280;6743;49.934;9.138;2024-03-29T06:36:45;98602.16;;;8.32;100.00
13348;BME280;6743;49.934;9.138;2024-03-29T06:39:11;98580.06;;;8.18;100.00
13348;BME280;6743;49.934;9.138;2024-03-29T06:41:37;98610.09;;;8.32;100.00
13348;BME280;6743;49.934;9.138;2024-03-29T06:44:03;98617.19;;;8.31;100.00
13348;BME280;6743;49.934;9.138;2024-03-29T06:46:29;98630.22;;;8.33;100.00
13348;BME280;6743;49.934;9.138;2024-03-29T06:48:55;98625.12;;;8.31;100.00
13348;BME280;6743;49.934;9.138;2024-03-29T06:51:21;98631.22;;;8.32;100.00
13348;BME280;6743;49.934;9.138;2024-03-29T06:53:48;98631.22;;;8.32;100.00
13348;BME280;6743;49.934;9.138;2024-03-29T06:56:14;98641.78;;;8.32;100.00
13348;BME280;6743;49.934;9.138;2024-03-29T06:58:41;98643.44;;;8.33;100.00
13348;BME280;6743;49.934;9.138;2024-03-29T07:01:07;98628.56;;;8.32;100.00
13348;BME280;6743;49.934;9.138;2024-03-29T07:03:33;98637.50;;;8.30;100.00
13348;BME280;6743;49.934;9.138;2024-03-29T07:05:59;98637.69;;;8.29;100.00
13348;BME280;6743;49.934;9.138;2024-03-29T07:08:25;98638.50;;;8.29;100.00
13348;BME280;6743;49.934;9.138;2024-03-29T07:10:58;98622.47;;;8.31;100.00
13348;BME280;6743;49.934;9.138;2024-03-29T07:13:24;98631.22;;;8.32;100.00
13348;BME280;6743;49.934;9.138;2024-03-29T07:15:51;98619.84;;;8.31;100.00
13348;BME280;6743;49.934;9.138;2024-03-29T07:18:17;98607.44;;;8.32;100.00
13348;BME280;6743;49.934;9.138;2024-03-29T07:20:43;98590.78;;;8.31;100.00
13348;BME280;6743;49.934;9.138;2024-03-29T07:23:09;98596.69;;;8.33;100.00
13348;BME280;6743;49.934;9.138;2024-03-29T07:25:36;98583.31;;;8.35;100.00
13348;BME280;6743;49.934;9.138;2024-03-29T07:28:03;98572.72;;;8.35;100.00
13348;BME280;6743;49.934;9.138;2024-03-29T07:30:30;98561.97;;;8.36;100.00
13348;BME280;6743;49.934;9.138;2024-03-29T07:32:56;98571.31;;;8.39;100.00
13348;BME280;6743;49.934;9.138;2024-03-29T07:35:22;98566.50;;;8.42;100.00
13348;BME280;6743;49.934;9.138;2024-03-29T07:37:49;98557.56;;;8.43;100.00
13348;BME280;6743;49.934;9.138;2024-03-29T07:40:16;98529.69;;;8.19;100.00
13348;BME280;6743;49.934;9.138;2024-03-29T07:42:42;98568.53;;;8.47;100.00
13348;BME280;6743;49.934;9.138;2024-03-29T07:45:09;98554.66;;;8.38;100.00
13348;BME280;6743;49.934;9.138;2024-03-29T07:47:35;98574.47;;;8.49;100.00
13348;BME280;6743;49.934;9.138;2024-03-29T07:50:01;98574.47;;;8.49;100.00
13348;BME280;6743;49.934;9.138;2024-03-29T07:52:28;98552.66;;;8.40;100.00
13348;BME280;6743;49.934;9.138;2024-03-29T07:54:55;98579.97;;;8.54;100.00
13348;BME280;6743;49.934;9.138;2024-03-29T07:57:21;98568.22;;;8.56;100.00
13348;BME280;6743;49.934;9.138;2024-03-29T07:59:50;98568.41;;;8.55;100.00
13348;BME280;6743;49.934;9.138;2024-03-29T08:02:17;98572.50;;;8.57;100.00
13348;BME280;6743;49.934;9.138;2024-03-29T08:04:43;98582.84;;;8.59;100.00
13348;BME280;6743;49.934;9.138;2024-03-29T08:07:10;98570.28;;;8.61;100.00
13348;BME280;6743;49.934;9.138;2024-03-29T08:09:37;98578.84;;;8.63;100.00
13348;BME280;6743;49.934;9.138;2024-03-29T08:12:05;98583.72;;;8.66;100.00
13348;BME280;6743;49.934;9.138;2024-03-29T08:14:31;98591.47;;;8.67;100.00
13348;BME280;6743;49.934;9.138;2024-03-29T08:16:57;98582.09;;;8.65;100.00
13348;BME280;6743;49.934;9.138;2024-03-29T08:19:28;98584.16;;;8.69;100.00
13348;BME280;6743;49.934;9.138;2024-03-29T08:21:54;98580.53;;;8.71;100.00
13348;BME280;6743;49.934;9.138;2024-03-29T08:24:20;98590.87;;;8.72;100.00
13348;BME280;6743;49.934;9.138;2024-03-29T08:26:47;98562.06;;;8.49;100.00
13348;BME280;6743;49.934;9.138;2024-03-29T08:29:13;98576.56;;;8.60;100.00
13348;BME280;6743;49.934;9.138;2024-03-29T08:31:38;98594.56;;;8.71;100.00
13348;BME280;6743;49.934;9.138;2024-03-29T08:34:04;98603.09;;;8.73;100.00
13348;BME280;6743;49.934;9.138;2024-03-29T08:36:32;98608.00;;;8.76;100.00
13348;BME280;6743;49.934;9.138;2024-03-29T08:38:59;98599.25;;;8.76;100.00
13348;BME280;6743;49.934;9.138;2024-03-29T08:41:25;98601.50;;;8.79;100.00
13348;BME280;6743;49.934;9.138;2024-03-29T08:43:50;98584.16;;;8.69;100.00
13348;BME280;6743;49.934;9.138;2024-03-29T08:46:16;98590.06;;;8.72;100.00
13348;BME280;6743;49.934;9.138;2024-03-29T08:48:42;98600.47;;;8.80;100.00
13348;BME280;6743;49.934;9.138;2024-03-29T08:51:09;98582.34;;;8.70;100.00
13348;BME280;6743;49.934;9.138;2024-03-29T08:53:36;98603.12;;;8.80;100.00
13348;BME280;6743;49.934;9.138;2024-03-29T08:56:02;98605.41;;;8.83;100.00
13348;BME280;6743;49.934;9.138;2024-03-29T08:58:28;98604.19;;;8.85;100.00
13348;BME280;6743;49.934;9.138;2024-03-29T09:00:55;98606.63;;;8.87;100.00
13348;BME280;6743;49.934;9.138;2024-03-29T09:03:21;98623.75;;;8.91;100.00
13348;BME280;6743;49.934;9.138;2024-03-29T09:05:47;98634.34;;;8.91;100.00
13348;BME280;6743;49.934;9.138;2024-03-29T09:08:13;98626.41;;;8.91;100.00
13348;BME280;6743;49.934;9.138;2024-03-29T09:10:41;98644.69;;;8.92;100.00
13348;BME280;6743;49.934;9.138;2024-03-29T09:13:07;98653.25;;;8.94;100.00
13348;BME280;6743;49.934;9.138;2024-03-29T09:15:34;98647.97;;;8.94;100.00
13348;BME280;6743;49.934;9.138;2024-03-29T09:18:00;98651.44;;;8.95;100.00
13348;BME280;6743;49.934;9.138;2024-03-29T09:20:35;98656.72;;;8.95;100.00
13348;BME280;6743;49.934;9.138;2024-03-29T09:23:01;98664.66;;;8.95;100.00
13348;BME280;6743;49.934;9.138;2024-03-29T09:25:27;98668.13;;;8.95;100.00
13348;BME280;6743;49.934;9.138;2024-03-29T09:27:53;98667.31;;;8.95;100.00
13348;BME280;6743;49.934;9.138;2024-03-29T09:30:19;98671.78;;;8.94;100.00
13348;BME280;6743;49.934;9.138;2024-03-29T09:32:47;98672.41;;;8.96;100.00
13348;BME280;6743;49.934;9.138;2024-03-29T09:35:15;98681.59;;;9.00;100.00
13348;BME280;6743;49.934;9.138;2024-03-29T09:37:41;98684.22;;;9.00;100.00
13348;BME280;6743;49.934;9.138;2024-03-29T09:40:09;98674.06;;;8.97;100.00
13348;BME280;6743;49.934;9.138;2024-03-29T09:42:38;98678.75;;;9.02;100.00
13348;BME280;6743;49.934;9.138;2024-03-29T09:45:05;98681.84;;;9.05;100.00
13348;BME280;6743;49.934;9.138;2024-03-29T09:47:33;98689.37;;;9.08;100.00
13348;BME280;6743;49.934;9.138;2024-03-29T09:50:02;98699.59;;;9.12;100.00
13348;BME280;6743;49.934;9.138;2024-03-29T09:52:29;98696.69;;;9.06;100.00
13348;BME280;6743;49.934;9.138;2024-03-29T09:54:55;98694.62;;;9.02;100.00
13348;BME280;6743;49.934;9.138;2024-03-29T09:57:22;98705.94;;;9.17;100.00
13348;BME280;6743;49.934;9.138;2024-03-29T09:59:49;98716.94;;;9.21;100.00
13348;BME280;6743;49.934;9.138;2024-03-29T10:02:16;98717.56;;;9.23;100.00
13348;BME280;6743;49.934;9.138;2024-03-29T10:04:44;98720.84;;;9.25;100.00
13348;BME280;6743;49.934;9.138;2024-03-29T10:07:11;98724.09;;;9.27;100.00
13348;BME280;6743;49.934;9.138;2024-03-29T10:09:39;98735.69;;;9.26;100.00
13348;BME280;6743;49.934;9.138;2024-03-29T10:12:06;98698.09;;;9.02;100.00
13348;BME280;6743;49.934;9.138;2024-03-29T10:14:43;98737.31;;;9.27;100.00
13348;BME280;6743;49.934;9.138;2024-03-29T10:17:09;98744.66;;;9.25;100.00
13348;BME280;6743;49.934;9.138;2024-03-29T10:19:36;98740.19;;;9.25;100.00
13348;BME280;6743;49.934;9.138;2024-03-29T10:22:05;98743.63;;;9.26;100.00
13348;BME280;6743;49.934;9.138;2024-03-29T10:24:33;98736.72;;;9.25;100.00
13348;BME280;6743;49.934;9.138;2024-03-29T10:26:59;98746.06;;;9.27;100.00
13348;BME280;6743;49.934;9.138;2024-03-29T10:29:27;98738.34;;;9.26;100.00
13348;BME280;6743;49.934;9.138;2024-03-29T10:31:55;98746.28;;;9.26;100.00
13348;BME280;6743;49.934;9.138;2024-03-29T10:34:21;98704.38;;;9.01;100.00
13348;BME280;6743;49.934;9.138;2024-03-29T10:36:47;98728.87;;;9.10;100.00
13348;BME280;6743;49.934;9.138;2024-03-29T10:39:15;98742.78;;;9.19;100.00
13348;BME280;6743;49.934;9.138;2024-03-29T10:41:42;98750.72;;;9.19;100.00
13348;BME280;6743;49.934;9.138;2024-03-29T10:44:09;98744.16;;;9.15;100.00
13348;BME280;6743;49.934;9.138;2024-03-29T10:46:37;98754.56;;;9.16;100.00
13348;BME280;6743;49.934;9.138;2024-03-29T10:49:06;98762.31;;;9.18;100.00
13348;BME280;6743;49.934;9.138;2024-03-29T10:51:37;98750.91;;;9.17;100.00
13348;BME280;6743;49.934;9.138;2024-03-29T10:54:04;98745.19;;;9.20;100.00
13348;BME280;6743;49.934;9.138;2024-03-29T10:56:32;98742.00;;;9.25;100.00
13348;BME280;6743;49.934;9.138;2024-03-29T10:59:03;98739.97;;;9.27;100.00
13348;BME280;6743;49.934;9.138;2024-03-29T11:01:33;98742.03;;;9.31;100.00
13348;BME280;6743;49.934;9.138;2024-03-29T11:04:06;98731.06;;;9.34;100.00
13348;BME280;6743;49.934;9.138;2024-03-29T11:06:37;98727.03;;;9.38;100.00
13348;BME280;6743;49.934;9.138;2024-03-29T11:09:10;98726.06;;;9.46;100.00
13348;BME280;6743;49.934;9.138;2024-03-29T11:11:38;98723.44;;;9.53;100.00
13348;BME280;6743;49.934;9.138;2024-03-29T11:14:08;98714.28;;;9.55;100.00
13348;BME280;6743;49.934;9.138;2024-03-29T11:16:36;98712.47;;;9.62;100.00
13348;BME280;6743;49.934;9.138;2024-03-29T11:19:02;98691.34;;;9.69;100.00
13348;BME280;6743;49.934;9.138;2024-03-29T11:21:30;98688.72;;;9.75;100.00
13348;BME280;6743;49.934;9.138;2024-03-29T11:23:57;98697.72;;;9.81;100.00
13348;BME280;6743;49.934;9.138;2024-03-29T11:26:27;98694.47;;;9.85;100.00
13348;BME280;6743;49.934;9.138;2024-03-29T11:28:53;98706.28;;;9.89;100.00
13348;BME280;6743;49.934;9.138;2024-03-29T11:31:22;98693.03;;;9.89;100.00
13348;BME280;6743;49.934;9.138;2024-03-29T11:33:49;98691.84;;;9.92;100.00
13348;BME280;6743;49.934;9.138;2024-03-29T11:36:18;98674.94;;;9.93;100.00
13348;BME280;6743;49.934;9.138;2024-03-29T11:38:46;98671.28;;;9.94;100.00
13348;BME280;6743;49.934;9.138;2024-03-29T11:41:14;98670.03;;;9.97;100.00
13348;BME280;6743;49.934;9.138;2024-03-29T11:43:41;98666.38;;;9.98;100.00
13348;BME280;6743;49.934;9.138;2024-03-29T11:46:09;98674.34;;;10.04;100.00
13348;BME280;6743;49.934;9.138;2024-03-29T11:48:36;98667.41;;;10.03;100.00
13348;BME280;6743;49.934;9.138;2024-03-29T11:51:05;98656.84;;;10.10;100.00
13348;BME280;6743;49.934;9.138;2024-03-29T11:53:32;98652.41;;;10.17;100.00
13348;BME280;6743;49.934;9.138;2024-03-29T11:55:58;98646.31;;;10.23;100.00
13348;BME280;6743;49.934;9.138;2024-03-29T11:58:26;98641.03;;;10.30;100.00
13348;BME280;6743;49.934;9.138;2024-03-29T12:00:53;98641.41;;;10.33;100.00
13348;BME280;6743;49.934;9.138;2024-03-29T12:03:21;98638.78;;;10.40;100.00
13348;BME280;6743;49.934;9.138;2024-03-29T12:05:48;98632.25;;;10.42;100.00
13348;BME280;6743;49.934;9.138;2024-03-29T12:08:16;98601.84;;;10.38;100.00
13348;BME280;6743;49.934;9.138;2024-03-29T12:10:42;98638.19;;;10.57;100.00
13348;BME280;6743;49.934;9.138;2024-03-29T12:13:08;98650.00;;;10.61;100.00
13348;BME280;6743;49.934;9.138;2024-03-29T12:15:35;98647.34;;;10.61;100.00
13348;BME280;6743;49.934;9.138;2024-03-29T12:18:03;98658.97;;;10.67;100.00
13348;BME280;6743;49.934;9.138;2024-03-29T12:20:30;98662.44;;;10.68;100.00
13348;BME280;6743;49.934;9.138;2024-03-29T12:22:58;98655.31;;;10.61;100.00
13348;BME280;6743;49.934;9.138;2024-03-29T12:25:25;98676.72;;;10.73;100.00
13348;BME280;6743;49.934;9.138;2024-03-29T12:27:52;98682.44;;;10.77;100.00
13348;BME280;6743;49.934;9.138;2024-03-29T12:30:18;98688.34;;;10.79;100.00
13348;BME280;6743;49.934;9.138;2024-03-29T12:32:44;98683.84;;;10.73;100.00
13348;BME280;6743;49.934;9.138;2024-03-29T12:35:13;98701.22;;;10.82;100.00
13348;BME280;6743;49.934;9.138;2024-03-29T12:37:47;98717.56;;;10.85;100.00
13348;BME280;6743;49.934;9.138;2024-03-29T12:40:13;98716.50;;;10.86;100.00
13348;BME280;6743;49.934;9.138;2024-03-29T12:42:43;98717.31;;;10.87;100.00
13348;BME280;6743;49.934;9.138;2024-03-29T12:45:10;98720.59;;;10.89;100.00
13348;BME280;6743;49.934;9.138;2024-03-29T12:47:36;98731.22;;;10.89;100.00
13348;BME280;6743;49.934;9.138;2024-03-29T12:50:03;98733.84;;;10.89;100.00
13348;BME280;6743;49.934;9.138;2024-03-29T12:52:37;98745.69;;;10.93;100.00
13348;BME280;6743;49.934;9.138;2024-03-29T12:55:03;98747.56;;;10.92;100.00
13348;BME280;6743;49.934;9.138;2024-03-29T12:57:31;98758.94;;;10.93;100.00
13348;BME280;6743;49.934;9.138;2024-03-29T12:59:57;98762.41;;;10.93;100.00
13348;BME280;6743;49.934;9.138;2024-03-29T13:02:23;98766.72;;;10.94;100.00
13348;BME280;6743;49.934;9.138;2024-03-29T13:04:49;98767.53;;;10.95;100.00
13348;BME280;6743;49.934;9.138;2024-03-29T13:07:16;98762.84;;;10.97;100.00